sensor_id;sensor_type;location;lat;lon;timestamp;P1;durP1;ratioP1;P2;durP2;ratioP2
22176;SDS011;11254;50.098;8.726;2023-03-25T00:00:58;2.63;;;0.40;;
22176;SDS011;11254;50.098;8.726;2023-03-25T00:03:27;1.48;;;0.40;;
22176;SDS011;11254;50.098;8.726;2023-03-25T00:05:56;1.98;;;0.60;;
22176;SDS011;11254;50.098;8.726;2023-03-25T00:08:24;1.08;;;0.20;;
22176;SDS011;11254;50.098;8.726;2023-03-25T00:10:55;1.77;;;0.45;;
22176;SDS011;11254;50.098;8.726;2023-03-25T00:13:26;0.82;;;0.20;;
22176;SDS011;11254;50.098;8.726;2023-03-25T00:15:58;1.13;;;0.30;;
22176;SDS011;11254;50.098;8.726;2023-03-25T00:18:27;0.55;;;0.20;;
22176;SDS011;11254;50.098;8.726;2023-03-25T00:20:59;1.13;;;0.30;;
22176;SDS011;11254;50.098;8.726;2023-03-25T00:23:28;0.77;;;0.20;;
22176;SDS011;11254;50.098;8.726;2023-03-25T00:25:56;0.88;;;0.22;;
22176;SDS011;11254;50.098;8.726;2023-03-25T00:28:26;0.73;;;0.22;;
22176;SDS011;11254;50.098;8.726;2023-03-25T00:30:58;0.68;;;0.30;;
22176;SDS011;11254;50.098;8.726;2023-03-25T00:33:27;0.82;;;0.30;;
22176;SDS011;11254;50.098;8.726;2023-03-25T00:35:57;0.73;;;0.38;;
22176;SDS011;11254;50.098;8.726;2023-03-25T00:38:26;1.73;;;0.35;;
22176;SDS011;11254;50.098;8.726;2023-03-25T00:41:12;1.65;;;0.32;;
22176;SDS011;11254;50.098;8.726;2023-03-25T00:43:43;0.75;;;0.30;;
22176;SDS011;11254;50.098;8.726;2023-03-25T00:46:13;1.90;;;0.20;;
22176;SDS011;11254;50.098;8.726;2023-03-25T00:48:41;0.28;;;0.20;;
22176;SDS011;11254;50.098;8.726;2023-03-25T00:51:10;2.65;;;0.30;;
22176;SDS011;11254;50.098;8.726;2023-03-25T00:53:39;4.20;;;0.40;;
22176;SDS011;11254;50.098;8.726;2023-03-25T00:56:08;1.98;;;0.25;;
22176;SDS011;11254;50.098;8.726;2023-03-25T00:58:37;2.92;;;0.43;;
22176;SDS011;11254;50.098;8.726;2023-03-25T01:01:09;1.35;;;0.57;;
22176;SDS011;11254;50.098;8.726;2023-03-25T01:03:40;1.35;;;0.50;;
22176;SDS011;11254;50.098;8.726;2023-03-25T01:06:10;2.83;;;0.30;;
22176;SDS011;11254;50.098;8.726;2023-03-25T01:08:39;1.77;;;0.30;;
22176;SDS011;11254;50.098;8.726;2023-03-25T01:11:15;3.13;;;0.40;;
22176;SDS011;11254;50.098;8.726;2023-03-25T01:13:44;0.73;;;0.20;;
22176;SDS011;11254;50.098;8.726;2023-03-25T01:16:13;3.42;;;0.50;;
22176;SDS011;11254;50.098;8.726;2023-03-25T01:18:43;2.38;;;0.50;;
22176;SDS011;11254;50.098;8.726;2023-03-25T01:21:11;1.63;;;0.38;;
22176;SDS011;11254;50.098;8.726;2023-03-25T01:23:40;2.45;;;0.90;;
22176;SDS011;11254;50.098;8.726;2023-03-25T01:26:08;2.55;;;0.40;;
22176;SDS011;11254;50.098;8.726;2023-03-25T01:28:38;3.42;;;0.50;;
22176;SDS011;11254;50.098;8.726;2023-03-25T01:31:07;1.27;;;0.40;;
22176;SDS011;11254;50.098;8.726;2023-03-25T01:33:36;1.63;;;0.50;;
22176;SDS011;11254;50.098;8.726;2023-03-25T01:36:06;1.60;;;0.40;;
22176;SDS011;11254;50.098;8.726;2023-03-25T01:38:35;2.33;;;0.30;;
22176;SDS011;11254;50.098;8.726;2023-03-25T01:41:04;2.83;;;0.40;;
22176;SDS011;11254;50.098;8.726;2023-03-25T01:43:33;3.25;;;0.40;;
22176;SDS011;11254;50.098;8.726;2023-03-25T01:46:01;1.25;;;0.45;;
22176;SDS011;11254;50.098;8.726;2023-03-25T01:48:31;2.88;;;0.60;;
22176;SDS011;11254;50.098;8.726;2023-03-25T01:51:02;3.10;;;0.50;;
22176;SDS011;11254;50.098;8.726;2023-03-25T01:53:33;2.63;;;0.60;;
22176;SDS011;11254;50.098;8.726;2023-03-25T01:56:02;2.13;;;0.60;;
22176;SDS011;11254;50.098;8.726;2023-03-25T01:58:32;2.92;;;0.43;;
22176;SDS011;11254;50.098;8.726;2023-03-25T02:01:02;2.97;;;0.40;;
22176;SDS011;11254;50.098;8.726;2023-03-25T02:03:30;2.85;;;0.50;;
22176;SDS011;11254;50.098;8.726;2023-03-25T02:06:03;3.22;;;0.60;;
22176;SDS011;11254;50.098;8.726;2023-03-25T02:08:35;2.03;;;0.47;;
22176;SDS011;11254;50.098;8.726;2023-03-25T02:11:06;2.28;;;0.50;;
22176;SDS011;11254;50.098;8.726;2023-03-25T02:13:35;1.58;;;0.40;;
22176;SDS011;11254;50.098;8.726;2023-03-25T02:16:09;2.28;;;0.47;;
22176;SDS011;11254;50.098;8.726;2023-03-25T02:18:40;2.30;;;0.40;;
22176;SDS011;11254;50.098;8.726;2023-03-25T02:24:22;4.45;;;0.55;;
22176;SDS011;11254;50.098;8.726;2023-03-25T02:27:03;4.63;;;0.93;;
22176;SDS011;11254;50.098;8.726;2023-03-25T02:29:48;4.88;;;0.90;;
22176;SDS011;11254;50.098;8.726;2023-03-25T02:32:30;1.75;;;0.68;;
22176;SDS011;11254;50.098;8.726;2023-03-25T02:35:08;4.38;;;0.60;;
22176;SDS011;11254;50.098;8.726;2023-03-25T02:37:48;2.97;;;1.00;;
22176;SDS011;11254;50.098;8.726;2023-03-25T02:40:24;3.97;;;0.80;;
22176;SDS011;11254;50.098;8.726;2023-03-25T02:42:54;1.70;;;0.65;;
22176;SDS011;11254;50.098;8.726;2023-03-25T02:45:27;4.28;;;0.82;;
22176;SDS011;11254;50.098;8.726;2023-03-25T02:47:58;5.97;;;0.98;;
22176;SDS011;11254;50.098;8.726;2023-03-25T02:50:29;2.15;;;0.45;;
22176;SDS011;11254;50.098;8.726;2023-03-25T02:52:59;5.55;;;0.90;;
22176;SDS011;11254;50.098;8.726;2023-03-25T02:55:29;4.75;;;0.98;;
22176;SDS011;11254;50.098;8.726;2023-03-25T02:57:58;2.70;;;0.73;;
22176;SDS011;11254;50.098;8.726;2023-03-25T03:00:30;6.47;;;0.93;;
22176;SDS011;11254;50.098;8.726;2023-03-25T03:03:00;5.00;;;1.15;;
22176;SDS011;11254;50.098;8.726;2023-03-25T03:05:31;5.93;;;0.80;;
22176;SDS011;11254;50.098;8.726;2023-03-25T03:08:05;2.92;;;0.70;;
22176;SDS011;11254;50.098;8.726;2023-03-25T03:10:37;2.88;;;0.88;;
22176;SDS011;11254;50.098;8.726;2023-03-25T03:13:09;1.73;;;0.60;;
22176;SDS011;11254;50.098;8.726;2023-03-25T03:15:43;4.47;;;0.65;;
22176;SDS011;11254;50.098;8.726;2023-03-25T03:18:15;2.53;;;0.80;;
22176;SDS011;11254;50.098;8.726;2023-03-25T03:20:48;3.22;;;0.70;;
22176;SDS011;11254;50.098;8.726;2023-03-25T03:23:20;1.50;;;0.43;;
22176;SDS011;11254;50.098;8.726;2023-03-25T03:25:52;3.55;;;0.63;;
22176;SDS011;11254;50.098;8.726;2023-03-25T03:28:22;1.60;;;0.52;;
22176;SDS011;11254;50.098;8.726;2023-03-25T03:30:56;3.05;;;0.70;;
22176;SDS011;11254;50.098;8.726;2023-03-25T03:33:28;3.47;;;0.60;;
22176;SDS011;11254;50.098;8.726;2023-03-25T03:35:59;4.22;;;0.80;;
22176;SDS011;11254;50.098;8.726;2023-03-25T03:38:31;2.53;;;0.90;;
22176;SDS011;11254;50.098;8.726;2023-03-25T03:41:01;4.07;;;0.60;;
22176;SDS011;11254;50.098;8.726;2023-03-25T03:43:32;2.03;;;0.50;;
22176;SDS011;11254;50.098;8.726;2023-03-25T03:46:03;1.80;;;0.50;;
22176;SDS011;11254;50.098;8.726;2023-03-25T03:48:35;4.38;;;0.60;;
22176;SDS011;11254;50.098;8.726;2023-03-25T03:51:06;1.02;;;0.38;;
22176;SDS011;11254;50.098;8.726;2023-03-25T03:53:37;2.50;;;0.40;;
22176;SDS011;11254;50.098;8.726;2023-03-25T03:56:07;2.55;;;0.70;;
22176;SDS011;11254;50.098;8.726;2023-03-25T03:58:39;2.35;;;0.82;;
22176;SDS011;11254;50.098;8.726;2023-03-25T04:01:09;3.08;;;0.50;;
22176;SDS011;11254;50.098;8.726;2023-03-25T04:03:39;2.80;;;0.50;;
22176;SDS011;11254;50.098;8.726;2023-03-25T04:06:11;1.65;;;0.50;;
22176;SDS011;11254;50.098;8.726;2023-03-25T04:08:46;1.48;;;0.50;;
22176;SDS011;11254;50.098;8.726;2023-03-25T04:11:18;1.10;;;0.40;;
22176;SDS011;11254;50.098;8.726;2023-03-25T04:13:49;1.85;;;0.50;;
22176;SDS011;11254;50.098;8.726;2023-03-25T04:16:19;2.47;;;0.65;;
22176;SDS011;11254;50.098;8.726;2023-03-25T04:18:47;1.23;;;0.50;;
22176;SDS011;11254;50.098;8.726;2023-03-25T04:21:19;1.77;;;0.43;;
22176;SDS011;11254;50.098;8.726;2023-03-25T04:23:48;1.73;;;0.63;;
22176;SDS011;11254;50.098;8.726;2023-03-25T04:26:17;2.15;;;0.52;;
22176;SDS011;11254;50.098;8.726;2023-03-25T04:28:47;2.60;;;0.47;;
22176;SDS011;11254;50.098;8.726;2023-03-25T04:31:16;2.95;;;0.68;;
22176;SDS011;11254;50.098;8.726;2023-03-25T04:33:44;2.97;;;0.63;;
22176;SDS011;11254;50.098;8.726;2023-03-25T04:36:14;2.13;;;0.60;;
22176;SDS011;11254;50.098;8.726;2023-03-25T04:38:42;1.98;;;0.60;;
22176;SDS011;11254;50.098;8.726;2023-03-25T04:41:13;4.10;;;0.70;;
22176;SDS011;11254;50.098;8.726;2023-03-25T04:43:42;2.40;;;0.68;;
22176;SDS011;11254;50.098;8.726;2023-03-25T04:46:11;2.88;;;0.60;;
22176;SDS011;11254;50.098;8.726;2023-03-25T04:48:41;3.47;;;0.60;;
22176;SDS011;11254;50.098;8.726;2023-03-25T04:51:10;3.30;;;0.70;;
22176;SDS011;11254;50.098;8.726;2023-03-25T04:53:39;5.10;;;0.85;;
22176;SDS011;11254;50.098;8.726;2023-03-25T04:56:11;3.15;;;0.85;;
22176;SDS011;11254;50.098;8.726;2023-03-25T04:58:42;2.22;;;0.68;;
22176;SDS011;11254;50.098;8.726;2023-03-25T05:01:14;3.38;;;0.80;;
22176;SDS011;11254;50.098;8.726;2023-03-25T05:03:46;4.53;;;0.70;;
22176;SDS011;11254;50.098;8.726;2023-03-25T05:06:15;2.75;;;0.80;;
22176;SDS011;11254;50.098;8.726;2023-03-25T05:08:44;2.40;;;0.80;;
22176;SDS011;11254;50.098;8.726;2023-03-25T05:11:12;4.20;;;0.88;;
22176;SDS011;11254;50.098;8.726;2023-03-25T05:13:40;3.20;;;0.80;;
22176;SDS011;11254;50.098;8.726;2023-03-25T05:16:10;1.65;;;0.60;;
22176;SDS011;11254;50.098;8.726;2023-03-25T05:18:40;3.03;;;1.00;;
22176;SDS011;11254;50.098;8.726;2023-03-25T05:21:08;5.82;;;0.80;;
22176;SDS011;11254;50.098;8.726;2023-03-25T05:23:38;4.47;;;0.80;;
22176;SDS011;11254;50.098;8.726;2023-03-25T05:26:07;3.47;;;1.08;;
22176;SDS011;11254;50.098;8.726;2023-03-25T05:28:37;3.67;;;0.90;;
22176;SDS011;11254;50.098;8.726;2023-03-25T05:31:06;5.40;;;0.95;;
22176;SDS011;11254;50.098;8.726;2023-03-25T05:33:36;3.20;;;1.13;;
22176;SDS011;11254;50.098;8.726;2023-03-25T05:36:08;4.00;;;0.75;;
22176;SDS011;11254;50.098;8.726;2023-03-25T05:38:37;3.88;;;0.93;;
22176;SDS011;11254;50.098;8.726;2023-03-25T05:41:07;3.15;;;0.90;;
22176;SDS011;11254;50.098;8.726;2023-03-25T05:43:36;2.83;;;0.90;;
22176;SDS011;11254;50.098;8.726;2023-03-25T05:46:04;4.10;;;0.88;;
22176;SDS011;11254;50.098;8.726;2023-03-25T05:48:33;5.30;;;1.20;;
22176;SDS011;11254;50.098;8.726;2023-03-25T05:51:03;2.80;;;1.00;;
22176;SDS011;11254;50.098;8.726;2023-03-25T05:53:33;4.43;;;1.23;;
22176;SDS011;11254;50.098;8.726;2023-03-25T05:56:03;3.13;;;1.10;;
22176;SDS011;11254;50.098;8.726;2023-03-25T05:58:31;6.05;;;1.15;;
22176;SDS011;11254;50.098;8.726;2023-03-25T06:01:00;4.03;;;1.13;;
22176;SDS011;11254;50.098;8.726;2023-03-25T06:03:29;4.28;;;0.90;;
22176;SDS011;11254;50.098;8.726;2023-03-25T06:05:59;2.80;;;0.80;;
22176;SDS011;11254;50.098;8.726;2023-03-25T06:08:31;3.53;;;1.08;;
22176;SDS011;11254;50.098;8.726;2023-03-25T06:11:00;2.30;;;0.90;;
22176;SDS011;11254;50.098;8.726;2023-03-25T06:13:29;3.28;;;1.00;;
22176;SDS011;11254;50.098;8.726;2023-03-25T06:15:59;3.38;;;1.00;;
22176;SDS011;11254;50.098;8.726;2023-03-25T06:18:28;3.78;;;0.90;;
22176;SDS011;11254;50.098;8.726;2023-03-25T06:20:56;1.80;;;0.60;;
22176;SDS011;11254;50.098;8.726;2023-03-25T06:23:25;3.67;;;0.90;;
22176;SDS011;11254;50.098;8.726;2023-03-25T06:25:55;5.53;;;1.20;;
22176;SDS011;11254;50.098;8.726;2023-03-25T06:28:24;3.42;;;0.52;;
22176;SDS011;11254;50.098;8.726;2023-03-25T06:30:52;1.58;;;0.50;;
22176;SDS011;11254;50.098;8.726;2023-03-25T06:33:21;2.78;;;0.70;;
22176;SDS011;11254;50.098;8.726;2023-03-25T06:36:09;1.90;;;0.50;;
22176;SDS011;11254;50.098;8.726;2023-03-25T06:38:38;2.15;;;0.60;;
22176;SDS011;11254;50.098;8.726;2023-03-25T06:41:11;2.97;;;0.70;;
22176;SDS011;11254;50.098;8.726;2023-03-25T06:43:41;3.88;;;0.70;;
22176;SDS011;11254;50.098;8.726;2023-03-25T06:46:15;3.72;;;0.77;;
22176;SDS011;11254;50.098;8.726;2023-03-25T06:49:06;2.42;;;0.40;;
22176;SDS011;11254;50.098;8.726;2023-03-25T06:51:35;2.75;;;0.50;;
22176;SDS011;11254;50.098;8.726;2023-03-25T06:54:03;2.17;;;0.60;;
22176;SDS011;11254;50.098;8.726;2023-03-25T06:56:33;1.50;;;0.60;;
22176;SDS011;11254;50.098;8.726;2023-03-25T06:59:01;2.08;;;0.65;;
22176;SDS011;11254;50.098;8.726;2023-03-25T07:01:30;6.30;;;0.80;;
22176;SDS011;11254;50.098;8.726;2023-03-25T07:03:59;3.72;;;0.70;;
22176;SDS011;11254;50.098;8.726;2023-03-25T07:06:27;2.28;;;0.70;;
22176;SDS011;11254;50.098;8.726;2023-03-25T07:08:56;3.67;;;0.95;;
22176;SDS011;11254;50.098;8.726;2023-03-25T07:11:24;3.28;;;0.90;;
22176;SDS011;11254;50.098;8.726;2023-03-25T07:13:55;4.97;;;1.17;;
22176;SDS011;11254;50.098;8.726;2023-03-25T07:16:24;5.25;;;1.15;;
22176;SDS011;11254;50.098;8.726;2023-03-25T07:18:53;3.40;;;1.20;;
22176;SDS011;11254;50.098;8.726;2023-03-25T07:21:22;3.80;;;0.88;;
22176;SDS011;11254;50.098;8.726;2023-03-25T07:23:50;5.70;;;1.00;;
22176;SDS011;11254;50.098;8.726;2023-03-25T07:26:19;5.72;;;1.30;;
22176;SDS011;11254;50.098;8.726;2023-03-25T07:28:47;3.58;;;1.00;;
22176;SDS011;11254;50.098;8.726;2023-03-25T07:31:17;3.33;;;1.05;;
22176;SDS011;11254;50.098;8.726;2023-03-25T07:33:45;5.68;;;1.10;;
22176;SDS011;11254;50.098;8.726;2023-03-25T07:36:14;5.85;;;1.10;;
22176;SDS011;11254;50.098;8.726;2023-03-25T07:38:43;5.65;;;1.00;;
22176;SDS011;11254;50.098;8.726;2023-03-25T07:41:11;8.38;;;1.52;;
22176;SDS011;11254;50.098;8.726;2023-03-25T07:44:06;4.60;;;0.93;;
22176;SDS011;11254;50.098;8.726;2023-03-25T07:46:37;4.03;;;1.30;;
22176;SDS011;11254;50.098;8.726;2023-03-25T07:49:06;5.00;;;0.90;;
22176;SDS011;11254;50.098;8.726;2023-03-25T07:51:34;7.72;;;1.70;;
22176;SDS011;11254;50.098;8.726;2023-03-25T07:54:03;6.78;;;1.02;;
22176;SDS011;11254;50.098;8.726;2023-03-25T07:56:31;6.10;;;1.30;;
22176;SDS011;11254;50.098;8.726;2023-03-25T07:59:00;5.40;;;1.52;;
22176;SDS011;11254;50.098;8.726;2023-03-25T08:01:29;4.38;;;1.00;;
22176;SDS011;11254;50.098;8.726;2023-03-25T08:03:58;5.18;;;1.30;;
22176;SDS011;11254;50.098;8.726;2023-03-25T08:06:27;3.75;;;0.90;;
22176;SDS011;11254;50.098;8.726;2023-03-25T08:08:55;5.60;;;1.08;;
22176;SDS011;11254;50.098;8.726;2023-03-25T08:11:25;5.40;;;1.58;;
22176;SDS011;11254;50.098;8.726;2023-03-25T08:13:54;4.07;;;1.15;;
22176;SDS011;11254;50.098;8.726;2023-03-25T08:16:24;4.60;;;0.85;;
22176;SDS011;11254;50.098;8.726;2023-03-25T08:18:53;5.25;;;1.08;;
22176;SDS011;11254;50.098;8.726;2023-03-25T08:21:24;5.05;;;1.10;;
22176;SDS011;11254;50.098;8.726;2023-03-25T08:23:53;5.72;;;1.40;;
22176;SDS011;11254;50.098;8.726;2023-03-25T08:26:27;7.05;;;1.05;;
22176;SDS011;11254;50.098;8.726;2023-03-25T08:28:56;11.60;;;1.80;;
22176;SDS011;11254;50.098;8.726;2023-03-25T08:31:25;5.90;;;1.30;;
22176;SDS011;11254;50.098;8.726;2023-03-25T08:33:56;7.07;;;1.58;;
22176;SDS011;11254;50.098;8.726;2023-03-25T08:36:26;9.75;;;1.88;;
22176;SDS011;11254;50.098;8.726;2023-03-25T08:38:54;8.60;;;1.40;;
22176;SDS011;11254;50.098;8.726;2023-03-25T08:41:23;6.60;;;1.30;;
22176;SDS011;11254;50.098;8.726;2023-03-25T08:43:52;6.78;;;1.40;;
22176;SDS011;11254;50.098;8.726;2023-03-25T08:46:20;5.82;;;1.25;;
22176;SDS011;11254;50.098;8.726;2023-03-25T08:48:49;10.15;;;1.38;;
22176;SDS011;11254;50.098;8.726;2023-03-25T08:51:18;7.93;;;1.50;;
22176;SDS011;11254;50.098;8.726;2023-03-25T08:53:48;7.13;;;1.40;;
22176;SDS011;11254;50.098;8.726;2023-03-25T08:56:17;10.27;;;1.58;;
22176;SDS011;11254;50.098;8.726;2023-03-25T08:58:45;8.00;;;1.30;;
22176;SDS011;11254;50.098;8.726;2023-03-25T09:01:14;10.07;;;1.77;;
22176;SDS011;11254;50.098;8.726;2023-03-25T09:03:42;9.85;;;1.90;;
22176;SDS011;11254;50.098;8.726;2023-03-25T09:06:12;5.07;;;1.08;;
22176;SDS011;11254;50.098;8.726;2023-03-25T09:08:41;6.88;;;1.55;;
22176;SDS011;11254;50.098;8.726;2023-03-25T09:11:17;7.40;;;1.33;;
22176;SDS011;11254;50.098;8.726;2023-03-25T09:14:01;7.75;;;1.50;;
22176;SDS011;11254;50.098;8.726;2023-03-25T09:16:30;7.50;;;1.35;;
22176;SDS011;11254;50.098;8.726;2023-03-25T09:18:58;7.18;;;1.52;;
22176;SDS011;11254;50.098;8.726;2023-03-25T09:21:27;6.53;;;1.52;;
22176;SDS011;11254;50.098;8.726;2023-03-25T09:23:55;5.80;;;1.40;;
22176;SDS011;11254;50.098;8.726;2023-03-25T09:26:25;5.32;;;1.08;;
22176;SDS011;11254;50.098;8.726;2023-03-25T09:28:54;6.93;;;1.60;;
22176;SDS011;11254;50.098;8.726;2023-03-25T09:31:22;4.50;;;1.30;;
22176;SDS011;11254;50.098;8.726;2023-03-25T09:33:51;7.28;;;1.50;;
22176;SDS011;11254;50.098;8.726;2023-03-25T09:36:20;6.75;;;1.42;;
22176;SDS011;11254;50.098;8.726;2023-03-25T09:38:48;8.38;;;1.38;;
22176;SDS011;11254;50.098;8.726;2023-03-25T09:41:22;5.65;;;1.60;;
22176;SDS011;11254;50.098;8.726;2023-03-25T09:43:56;5.25;;;1.08;;
22176;SDS011;11254;50.098;8.726;2023-03-25T09:46:28;5.97;;;1.27;;
22176;SDS011;11254;50.098;8.726;2023-03-25T09:48:56;9.25;;;1.20;;
22176;SDS011;11254;50.098;8.726;2023-03-25T09:51:27;7.00;;;1.10;;
22176;SDS011;11254;50.098;8.726;2023-03-25T09:53:57;9.20;;;1.50;;
22176;SDS011;11254;50.098;8.726;2023-03-25T09:56:28;6.82;;;1.55;;
22176;SDS011;11254;50.098;8.726;2023-03-25T09:59:00;3.80;;;0.65;;
22176;SDS011;11254;50.098;8.726;2023-03-25T10:01:33;2.35;;;0.68;;
22176;SDS011;11254;50.098;8.726;2023-03-25T10:04:08;4.28;;;0.77;;
22176;SDS011;11254;50.098;8.726;2023-03-25T10:06:39;3.03;;;1.10;;
22176;SDS011;11254;50.098;8.726;2023-03-25T10:09:16;4.35;;;0.98;;
22176;SDS011;11254;50.098;8.726;2023-03-25T10:11:48;4.72;;;0.95;;
22176;SDS011;11254;50.098;8.726;2023-03-25T10:14:23;3.42;;;1.13;;
22176;SDS011;11254;50.098;8.726;2023-03-25T10:16:57;9.65;;;1.52;;
22176;SDS011;11254;50.098;8.726;2023-03-25T10:19:32;3.83;;;0.70;;
22176;SDS011;11254;50.098;8.726;2023-03-25T10:22:02;3.35;;;0.60;;
22176;SDS011;11254;50.098;8.726;2023-03-25T10:24:31;3.00;;;0.55;;
22176;SDS011;11254;50.098;8.726;2023-03-25T10:27:01;2.50;;;0.40;;
22176;SDS011;11254;50.098;8.726;2023-03-25T10:29:32;1.30;;;0.35;;
22176;SDS011;11254;50.098;8.726;2023-03-25T10:32:05;6.47;;;2.45;;
22176;SDS011;11254;50.098;8.726;2023-03-25T10:34:34;4.28;;;1.67;;
22176;SDS011;11254;50.098;8.726;2023-03-25T10:37:05;3.88;;;0.90;;
22176;SDS011;11254;50.098;8.726;2023-03-25T10:39:38;3.45;;;0.98;;
22176;SDS011;11254;50.098;8.726;2023-03-25T10:42:13;1.13;;;0.30;;
22176;SDS011;11254;50.098;8.726;2023-03-25T10:44:44;1.70;;;0.65;;
22176;SDS011;11254;50.098;8.726;2023-03-25T10:47:14;2.70;;;0.68;;
22176;SDS011;11254;50.098;8.726;2023-03-25T10:49:43;5.78;;;1.17;;
22176;SDS011;11254;50.098;8.726;2023-03-25T10:52:14;3.67;;;0.52;;
22176;SDS011;11254;50.098;8.726;2023-03-25T10:54:43;1.55;;;0.50;;
22176;SDS011;11254;50.098;8.726;2023-03-25T10:57:14;5.60;;;0.65;;
22176;SDS011;11254;50.098;8.726;2023-03-25T10:59:46;1.80;;;0.50;;
22176;SDS011;11254;50.098;8.726;2023-03-25T11:02:19;1.88;;;0.60;;
22176;SDS011;11254;50.098;8.726;2023-03-25T11:04:48;3.30;;;0.75;;
22176;SDS011;11254;50.098;8.726;2023-03-25T11:07:19;4.47;;;0.70;;
22176;SDS011;11254;50.098;8.726;2023-03-25T11:09:49;3.92;;;0.50;;
22176;SDS011;11254;50.098;8.726;2023-03-25T11:12:18;3.20;;;0.90;;
22176;SDS011;11254;50.098;8.726;2023-03-25T11:15:04;2.42;;;0.60;;
22176;SDS011;11254;50.098;8.726;2023-03-25T11:17:33;2.45;;;0.60;;
22176;SDS011;11254;50.098;8.726;2023-03-25T11:20:03;5.32;;;1.85;;
22176;SDS011;11254;50.098;8.726;2023-03-25T11:22:36;1.23;;;0.50;;
22176;SDS011;11254;50.098;8.726;2023-03-25T11:25:05;3.50;;;0.60;;
22176;SDS011;11254;50.098;8.726;2023-03-25T11:27:37;2.83;;;0.50;;
22176;SDS011;11254;50.098;8.726;2023-03-25T11:30:14;2.72;;;0.70;;
22176;SDS011;11254;50.098;8.726;2023-03-25T11:32:43;3.88;;;0.70;;
22176;SDS011;11254;50.098;8.726;2023-03-25T11:35:15;4.78;;;0.50;;
22176;SDS011;11254;50.098;8.726;2023-03-25T11:37:44;4.63;;;0.55;;
22176;SDS011;11254;50.098;8.726;2023-03-25T11:40:15;4.38;;;0.80;;
22176;SDS011;11254;50.098;8.726;2023-03-25T11:42:44;4.22;;;1.00;;
22176;SDS011;11254;50.098;8.726;2023-03-25T11:45:20;2.30;;;0.50;;
22176;SDS011;11254;50.098;8.726;2023-03-25T11:47:49;5.35;;;0.88;;
22176;SDS011;11254;50.098;8.726;2023-03-25T11:50:19;3.05;;;0.50;;
22176;SDS011;11254;50.098;8.726;2023-03-25T11:52:48;4.97;;;0.77;;
22176;SDS011;11254;50.098;8.726;2023-03-25T11:55:17;4.43;;;1.08;;
22176;SDS011;11254;50.098;8.726;2023-03-25T11:57:47;2.50;;;0.63;;
22176;SDS011;11254;50.098;8.726;2023-03-25T12:00:25;4.63;;;0.85;;
22176;SDS011;11254;50.098;8.726;2023-03-25T12:02:58;5.57;;;1.17;;
22176;SDS011;11254;50.098;8.726;2023-03-25T12:05:27;4.47;;;1.23;;
22176;SDS011;11254;50.098;8.726;2023-03-25T12:07:59;2.80;;;0.70;;
22176;SDS011;11254;50.098;8.726;2023-03-25T12:10:33;5.82;;;0.80;;
22176;SDS011;11254;50.098;8.726;2023-03-25T12:13:04;2.67;;;0.70;;
22176;SDS011;11254;50.098;8.726;2023-03-25T12:15:36;6.13;;;0.82;;
22176;SDS011;11254;50.098;8.726;2023-03-25T12:20:55;5.72;;;1.00;;
22176;SDS011;11254;50.098;8.726;2023-03-25T12:23:28;2.95;;;0.70;;
22176;SDS011;11254;50.098;8.726;2023-03-25T12:26:00;7.15;;;0.98;;
22176;SDS011;11254;50.098;8.726;2023-03-25T12:28:47;3.72;;;0.82;;
22176;SDS011;11254;50.098;8.726;2023-03-25T12:31:25;3.65;;;1.00;;
22176;SDS011;11254;50.098;8.726;2023-03-25T12:33:59;2.85;;;0.85;;
22176;SDS011;11254;50.098;8.726;2023-03-25T12:36:36;4.78;;;0.77;;
22176;SDS011;11254;50.098;8.726;2023-03-25T12:39:11;3.35;;;0.65;;
22176;SDS011;11254;50.098;8.726;2023-03-25T12:41:44;2.85;;;0.68;;
22176;SDS011;11254;50.098;8.726;2023-03-25T12:44:18;4.47;;;0.85;;
22176;SDS011;11254;50.098;8.726;2023-03-25T12:46:59;3.33;;;0.60;;
22176;SDS011;11254;50.098;8.726;2023-03-25T12:52:15;2.22;;;0.60;;
22176;SDS011;11254;50.098;8.726;2023-03-25T12:54:55;3.15;;;0.75;;
22176;SDS011;11254;50.098;8.726;2023-03-25T12:57:31;4.22;;;0.77;;
22176;SDS011;11254;50.098;8.726;2023-03-25T13:00:07;5.55;;;0.80;;
22176;SDS011;11254;50.098;8.726;2023-03-25T13:02:56;3.47;;;0.60;;
22176;SDS011;11254;50.098;8.726;2023-03-25T13:05:29;1.25;;;0.50;;
22176;SDS011;11254;50.098;8.726;2023-03-25T13:08:01;3.17;;;0.40;;
22176;SDS011;11254;50.098;8.726;2023-03-25T13:10:32;2.72;;;0.55;;
22176;SDS011;11254;50.098;8.726;2023-03-25T13:13:02;5.55;;;0.73;;
22176;SDS011;11254;50.098;8.726;2023-03-25T13:15:35;2.65;;;0.60;;
22176;SDS011;11254;50.098;8.726;2023-03-25T13:18:08;3.80;;;0.70;;
22176;SDS011;11254;50.098;8.726;2023-03-25T13:20:39;2.25;;;0.50;;
22176;SDS011;11254;50.098;8.726;2023-03-25T13:23:10;5.57;;;0.80;;
22176;SDS011;11254;50.098;8.726;2023-03-25T13:25:41;4.32;;;0.68;;
22176;SDS011;11254;50.098;8.726;2023-03-25T13:28:12;2.53;;;0.93;;
22176;SDS011;11254;50.098;8.726;2023-03-25T13:30:43;4.15;;;0.75;;
22176;SDS011;11254;50.098;8.726;2023-03-25T13:33:14;6.50;;;0.38;;
22176;SDS011;11254;50.098;8.726;2023-03-25T13:35:43;1.67;;;0.40;;
22176;SDS011;11254;50.098;8.726;2023-03-25T13:38:14;3.50;;;0.80;;
22176;SDS011;11254;50.098;8.726;2023-03-25T13:40:46;3.17;;;0.60;;
22176;SDS011;11254;50.098;8.726;2023-03-25T13:43:19;3.08;;;0.63;;
22176;SDS011;11254;50.098;8.726;2023-03-25T13:45:50;2.30;;;0.50;;
22176;SDS011;11254;50.098;8.726;2023-03-25T13:48:23;2.72;;;0.60;;
22176;SDS011;11254;50.098;8.726;2023-03-25T13:50:56;1.88;;;0.50;;
22176;SDS011;11254;50.098;8.726;2023-03-25T13:53:26;3.53;;;0.68;;
22176;SDS011;11254;50.098;8.726;2023-03-25T13:56:00;2.28;;;0.50;;
22176;SDS011;11254;50.098;8.726;2023-03-25T13:58:36;2.03;;;0.60;;
22176;SDS011;11254;50.098;8.726;2023-03-25T14:09:31;3.10;;;0.70;;
22176;SDS011;11254;50.098;8.726;2023-03-25T14:12:03;3.00;;;0.70;;
22176;SDS011;11254;50.098;8.726;2023-03-25T14:14:35;2.42;;;0.70;;
22176;SDS011;11254;50.098;8.726;2023-03-25T14:17:04;3.78;;;0.50;;
22176;SDS011;11254;50.098;8.726;2023-03-25T14:19:34;2.72;;;0.57;;
22176;SDS011;11254;50.098;8.726;2023-03-25T14:22:07;2.30;;;0.50;;
22176;SDS011;11254;50.098;8.726;2023-03-25T14:24:40;3.13;;;0.70;;
22176;SDS011;11254;50.098;8.726;2023-03-25T14:27:13;1.60;;;0.60;;
22176;SDS011;11254;50.098;8.726;2023-03-25T14:29:43;3.50;;;0.60;;
22176;SDS011;11254;50.098;8.726;2023-03-25T14:32:28;2.22;;;0.77;;
22176;SDS011;11254;50.098;8.726;2023-03-25T14:37:47;3.58;;;0.70;;
22176;SDS011;11254;50.098;8.726;2023-03-25T14:43:20;5.18;;;0.75;;
22176;SDS011;11254;50.098;8.726;2023-03-25T14:45:59;4.20;;;0.73;;
22176;SDS011;11254;50.098;8.726;2023-03-25T14:48:30;3.17;;;0.63;;
22176;SDS011;11254;50.098;8.726;2023-03-25T14:51:12;3.03;;;0.70;;
22176;SDS011;11254;50.098;8.726;2023-03-25T14:53:41;3.03;;;0.73;;
22176;SDS011;11254;50.098;8.726;2023-03-25T14:56:17;5.88;;;1.10;;
22176;SDS011;11254;50.098;8.726;2023-03-25T14:58:49;3.72;;;0.80;;
22176;SDS011;11254;50.098;8.726;2023-03-25T15:01:18;3.15;;;1.02;;
22176;SDS011;11254;50.098;8.726;2023-03-25T15:03:47;3.78;;;0.70;;
22176;SDS011;11254;50.098;8.726;2023-03-25T15:06:16;2.25;;;0.68;;
22176;SDS011;11254;50.098;8.726;2023-03-25T15:08:49;2.90;;;0.73;;
22176;SDS011;11254;50.098;8.726;2023-03-25T15:11:24;3.20;;;0.80;;
22176;SDS011;11254;50.098;8.726;2023-03-25T15:13:55;2.95;;;0.63;;
22176;SDS011;11254;50.098;8.726;2023-03-25T15:16:27;4.45;;;0.55;;
22176;SDS011;11254;50.098;8.726;2023-03-25T15:19:00;5.10;;;0.77;;
22176;SDS011;11254;50.098;8.726;2023-03-25T15:21:30;4.22;;;0.90;;
22176;SDS011;11254;50.098;8.726;2023-03-25T15:24:01;7.30;;;0.95;;
22176;SDS011;11254;50.098;8.726;2023-03-25T15:26:31;4.20;;;0.93;;
22176;SDS011;11254;50.098;8.726;2023-03-25T15:29:16;4.70;;;0.90;;
22176;SDS011;11254;50.098;8.726;2023-03-25T15:31:51;5.53;;;1.10;;
22176;SDS011;11254;50.098;8.726;2023-03-25T15:34:29;4.15;;;1.00;;